createdAt,value
2023-04-12T00:00:17.058Z,29.38
2023-04-12T00:01:17.063Z,29.38
2023-04-12T00:02:17.186Z,29.38
2023-04-12T00:03:17.192Z,29.37
2023-04-12T00:04:17.293Z,29.34
2023-04-12T00:05:17.244Z,29.39
2023-04-12T00:06:17.132Z,29.37
2023-04-12T00:07:17.165Z,29.35
2023-04-12T00:08:17.185Z,29.37
2023-04-12T00:09:17.205Z,29.37
2023-04-12T00:10:17.227Z,29.37
2023-04-12T00:11:17.246Z,29.35
2023-04-12T00:12:17.272Z,29.34
2023-04-12T00:13:17.333Z,29.31
2023-04-12T00:14:17.323Z,29.37
2023-04-12T00:15:17.353Z,29.41
2023-04-12T00:16:17.390Z,29.32
2023-04-12T00:17:17.477Z,29.38
2023-04-12T00:18:17.419Z,29.32
2023-04-12T00:19:17.454Z,29.34
2023-04-12T00:20:17.496Z,29.37
2023-04-12T00:21:17.503Z,29.35
2023-04-12T00:22:17.536Z,29.35
2023-04-12T00:23:17.555Z,29.39
2023-04-12T00:24:17.580Z,29.35
2023-04-12T00:25:17.605Z,29.41
2023-04-12T00:26:17.627Z,29.37
2023-04-12T00:27:17.650Z,29.37
2023-04-12T00:28:17.681Z,29.32
2023-04-12T00:29:17.737Z,29.35
2023-04-12T00:30:17.756Z,29.31
2023-04-12T00:31:17.880Z,29.35
2023-04-12T00:32:17.785Z,29.31
2023-04-12T00:33:17.811Z,29.29
2023-04-12T00:34:17.852Z,29.35
2023-04-12T00:35:17.862Z,29.32
2023-04-12T00:36:18.555Z,29.32
2023-04-12T00:37:18.516Z,29.38
2023-04-12T00:38:17.927Z,29.35
2023-04-12T00:39:18.616Z,29.38
2023-04-12T00:40:18.003Z,29.29
2023-04-12T00:41:18.010Z,29.35
2023-04-12T00:42:18.029Z,29.35
2023-04-12T00:43:18.058Z,29.33
2023-04-12T00:44:18.131Z,29.35
2023-04-12T00:45:18.199Z,29.34
2023-04-12T00:46:18.216Z,29.33
2023-04-12T00:47:19.027Z,29.26
2023-04-12T00:48:18.162Z,29.29
2023-04-12T00:49:18.188Z,29.32
2023-04-12T00:50:18.214Z,29.32
2023-04-12T00:51:18.481Z,29.31
2023-04-12T00:52:18.270Z,29.29
2023-04-12T00:53:18.312Z,29.38
2023-04-12T00:54:18.398Z,29.31
2023-04-12T00:55:18.422Z,29.31
2023-04-12T00:56:18.372Z,29.31
2023-04-12T00:57:18.395Z,29.26
2023-04-12T00:58:18.432Z,29.29
2023-04-12T00:59:18.449Z,29.33
2023-04-12T01:00:18.477Z,29.29
2023-04-12T01:01:18.694Z,29.29
2023-04-12T01:02:18.631Z,29.31
2023-04-12T01:03:18.675Z,29.31
2023-04-12T01:04:18.574Z,29.28
2023-04-12T01:05:18.594Z,29.31
2023-04-12T01:06:18.623Z,29.32
2023-04-12T01:07:18.651Z,29.31
2023-04-12T01:08:18.670Z,29.26
2023-04-12T01:09:18.695Z,29.25
2023-04-12T01:10:18.717Z,29.28
2023-04-12T01:11:18.737Z,29.28
2023-04-12T01:12:18.758Z,29.26
2023-04-12T01:13:18.782Z,29.26
2023-04-12T01:14:19.352Z,29.28
2023-04-12T01:15:18.828Z,29.29
2023-04-12T01:16:18.930Z,29.29
2023-04-12T01:17:18.964Z,29.28
2023-04-12T01:18:18.897Z,29.32
2023-04-12T01:19:19.620Z,29.31
2023-04-12T01:20:18.925Z,29.29
2023-04-12T01:21:18.953Z,29.32
2023-04-12T01:22:18.983Z,29.23
2023-04-12T01:23:19.007Z,29.22
2023-04-12T01:24:19.024Z,29.25
2023-04-12T01:25:19.046Z,29.25
2023-04-12T01:26:19.103Z,29.22
2023-04-12T01:27:19.092Z,29.22
2023-04-12T01:28:19.115Z,29.25
2023-04-12T01:29:19.142Z,29.21
2023-04-12T01:30:19.170Z,29.21
2023-04-12T01:31:19.219Z,29.22
2023-04-12T01:32:19.215Z,29.28
2023-04-12T01:33:19.351Z,29.23
2023-04-12T01:34:19.274Z,29.31
2023-04-12T01:35:19.318Z,29.25
2023-04-12T01:36:19.344Z,29.19
2023-04-12T01:37:19.360Z,29.25
2023-04-12T01:38:19.390Z,29.23
2023-04-12T01:39:19.433Z,29.21
2023-04-12T01:40:19.450Z,29.21
2023-04-12T01:41:19.478Z,29.22
2023-04-12T01:42:19.504Z,29.25
2023-04-12T01:43:19.537Z,29.22
2023-04-12T01:44:19.600Z,29.22
2023-04-12T01:45:19.599Z,29.23
2023-04-12T01:46:19.724Z,29.22
2023-04-12T01:47:19.644Z,29.24
2023-04-12T01:48:19.683Z,29.18
2023-04-12T01:49:19.755Z,29.22
2023-04-12T01:50:20.564Z,29.23
2023-04-12T01:51:19.749Z,29.17
2023-04-12T01:52:19.776Z,29.19
2023-04-12T01:53:19.808Z,29.24
2023-04-12T01:54:19.859Z,29.22
2023-04-12T01:55:19.856Z,29.17
2023-04-12T01:56:19.889Z,29.15
2023-04-12T01:57:19.914Z,29.17
2023-04-12T01:58:19.962Z,29.21
2023-04-12T01:59:19.977Z,29.19
2023-04-12T02:00:20.013Z,29.22
2023-04-12T02:01:20.140Z,29.21
2023-04-12T02:02:20.154Z,29.22
2023-04-12T02:03:20.259Z,29.14
2023-04-12T02:04:20.138Z,29.21
2023-04-12T02:05:20.185Z,29.19
2023-04-12T02:06:20.203Z,29.18
2023-04-12T02:07:20.217Z,29.21
2023-04-12T02:08:20.253Z,29.21
2023-04-12T02:09:20.285Z,29.19
2023-04-12T02:10:20.302Z,29.16
2023-04-12T02:11:20.345Z,29.15
2023-04-12T02:12:20.361Z,29.19
2023-04-12T02:13:20.400Z,29.19
2023-04-12T02:14:20.414Z,29.15
2023-04-12T02:15:20.441Z,29.12
2023-04-12T02:16:20.548Z,29.15
2023-04-12T02:17:20.500Z,29.18
2023-04-12T02:18:20.521Z,29.19
2023-04-12T02:19:20.549Z,29.16
2023-04-12T02:20:20.573Z,29.14
2023-04-12T02:21:20.631Z,29.18
2023-04-12T02:22:20.641Z,29.18
2023-04-12T02:23:20.666Z,29.15
2023-04-12T02:24:20.695Z,29.14
2023-04-12T02:25:20.762Z,29.14
2023-04-12T02:26:20.748Z,29.14
2023-04-12T02:27:20.881Z,29.13
2023-04-12T02:28:20.877Z,29.12
2023-04-12T02:29:21.176Z,29.14
2023-04-12T02:30:20.880Z,29.12
2023-04-12T02:31:21.021Z,29.15
2023-04-12T02:32:20.918Z,29.12
2023-04-12T02:33:20.953Z,29.10
2023-04-12T02:34:20.980Z,29.11
2023-04-12T02:35:21.042Z,29.09
2023-04-12T02:36:21.049Z,29.07
2023-04-12T02:37:21.091Z,29.14
2023-04-12T02:38:21.626Z,29.10
2023-04-12T02:39:21.124Z,29.08
2023-04-12T02:40:21.169Z,29.14
2023-04-12T02:41:21.185Z,29.12
2023-04-12T02:42:21.214Z,29.12
2023-04-12T02:43:21.247Z,29.09
2023-04-12T02:44:21.273Z,29.10
2023-04-12T02:45:21.302Z,29.06
2023-04-12T02:46:21.336Z,29.08
2023-04-12T02:47:21.352Z,29.06
2023-04-12T02:48:21.388Z,29.09
2023-04-12T02:49:21.419Z,29.08
2023-04-12T02:50:21.437Z,29.06
2023-04-12T02:51:21.484Z,29.02
2023-04-12T02:52:21.492Z,29.04
2023-04-12T02:53:21.545Z,29.08
2023-04-12T02:54:21.580Z,29.01
2023-04-12T02:55:21.574Z,29.02
2023-04-12T02:56:21.615Z,29.06
2023-04-12T02:57:21.649Z,29.05
2023-04-12T02:58:21.659Z,29.03
2023-04-12T02:59:21.699Z,29.04
2023-04-12T03:00:21.750Z,29.06
2023-04-12T03:01:21.787Z,29.05
2023-04-12T03:02:21.980Z,29.02
2023-04-12T03:03:22.037Z,29.07
2023-04-12T03:04:21.988Z,29.02
2023-04-12T03:05:21.848Z,29.02
2023-04-12T03:06:22.003Z,29.04
2023-04-12T03:07:21.920Z,29.02
2023-04-12T03:08:21.923Z,29.05
2023-04-12T03:09:21.989Z,29.02
2023-04-12T03:10:21.986Z,29.04
2023-04-12T03:11:22.000Z,29.02
2023-04-12T03:12:22.041Z,29.03
2023-04-12T03:13:22.067Z,29.03
2023-04-12T03:14:22.076Z,29.05
2023-04-12T03:15:22.098Z,28.98
2023-04-12T03:16:22.173Z,29.02
2023-04-12T03:17:22.154Z,29.02
2023-04-12T03:18:22.163Z,29.01
2023-04-12T03:19:22.240Z,29.02
2023-04-12T03:20:22.220Z,29.01
2023-04-12T03:21:22.248Z,28.96
2023-04-12T03:22:22.274Z,28.99
2023-04-12T03:23:22.300Z,29.03
2023-04-12T03:24:22.332Z,29.02
2023-04-12T03:25:22.389Z,29.04
2023-04-12T03:26:22.372Z,29.02
2023-04-12T03:27:22.406Z,29.06
2023-04-12T03:28:22.432Z,28.99
2023-04-12T03:29:22.442Z,29.06
2023-04-12T03:30:22.461Z,29.06
2023-04-12T03:31:22.512Z,29.01
2023-04-12T03:32:22.521Z,29.06
2023-04-12T03:33:22.527Z,29.09
2023-04-12T03:34:22.534Z,29.09
2023-04-12T03:35:22.586Z,29.09
2023-04-12T03:36:22.548Z,29.07
2023-04-12T03:37:22.642Z,29.13
2023-04-12T03:38:22.571Z,29.11
2023-04-12T03:39:22.580Z,29.13
2023-04-12T03:40:22.596Z,29.17
2023-04-12T03:41:22.680Z,29.11
2023-04-12T03:42:32.407Z,29.21
2023-04-12T03:43:22.602Z,29.16
2023-04-12T03:44:22.602Z,29.18
2023-04-12T03:45:22.602Z,29.23
2023-04-12T03:46:22.605Z,29.18
2023-04-12T03:47:22.655Z,29.17
2023-04-12T03:48:22.584Z,29.18
2023-04-12T03:49:22.580Z,29.18
2023-04-12T03:50:22.583Z,29.20
2023-04-12T03:51:22.579Z,29.24
2023-04-12T03:52:22.578Z,29.25
2023-04-12T03:53:22.568Z,29.23
2023-04-12T03:54:22.559Z,29.22
2023-04-12T03:55:22.559Z,29.21
2023-04-12T03:56:22.544Z,29.20
2023-04-12T03:57:22.570Z,29.21
2023-04-12T03:58:22.526Z,29.21
2023-04-12T03:59:22.519Z,29.21
2023-04-12T04:00:22.512Z,29.24
2023-04-12T04:01:22.513Z,29.15
2023-04-12T04:02:22.755Z,29.21
2023-04-12T04:03:22.543Z,29.21
2023-04-12T04:04:22.596Z,29.23
2023-04-12T04:05:22.562Z,29.23
2023-04-12T04:06:22.485Z,29.18
2023-04-12T04:07:22.482Z,29.21
2023-04-12T04:08:22.505Z,29.16
2023-04-12T04:09:22.480Z,29.20
2023-04-12T04:10:22.468Z,29.18
2023-04-12T04:11:22.501Z,29.14
2023-04-12T04:12:22.459Z,29.16
2023-04-12T04:13:22.481Z,29.17
2023-04-12T04:14:22.442Z,29.17
2023-04-12T04:15:22.438Z,29.13
2023-04-12T04:16:22.467Z,29.07
2023-04-12T04:17:22.452Z,29.12
2023-04-12T04:18:22.415Z,29.14
2023-04-12T04:19:22.401Z,29.11
2023-04-12T04:20:22.393Z,29.09
2023-04-12T04:21:22.404Z,29.16
2023-04-12T04:22:22.364Z,29.17
2023-04-12T04:23:22.355Z,29.20
2023-04-12T04:24:22.474Z,29.13
2023-04-12T04:25:22.328Z,29.21
2023-04-12T04:26:22.340Z,29.25
2023-04-12T04:27:22.384Z,29.24
2023-04-12T04:28:22.317Z,29.20
2023-04-12T04:29:22.306Z,29.24
2023-04-12T04:30:22.277Z,29.23
2023-04-12T04:31:22.439Z,29.24
2023-04-12T04:32:22.264Z,29.24
2023-04-12T04:33:22.234Z,29.25
2023-04-12T04:34:22.409Z,29.21
2023-04-12T04:35:22.246Z,29.27
2023-04-12T04:36:22.273Z,29.27
2023-04-12T04:37:22.184Z,29.30
2023-04-12T04:38:22.173Z,29.21
2023-04-12T04:39:22.168Z,29.27
2023-04-12T04:40:22.147Z,29.27
2023-04-12T04:41:22.136Z,29.30
2023-04-12T04:42:22.136Z,29.29
2023-04-12T04:43:22.122Z,29.29
2023-04-12T04:44:22.108Z,29.32
2023-04-12T04:45:22.131Z,29.34
2023-04-12T04:46:22.137Z,29.29
2023-04-12T04:47:22.084Z,29.32
2023-04-12T04:48:22.061Z,29.31
2023-04-12T04:49:22.052Z,29.28
2023-04-12T04:50:22.042Z,29.27
2023-04-12T04:51:22.035Z,29.27
2023-04-12T04:52:22.062Z,29.26
2023-04-12T04:53:22.018Z,29.20
2023-04-12T04:54:22.012Z,29.23
2023-04-12T04:55:22.007Z,29.25
2023-04-12T04:56:21.991Z,29.25
2023-04-12T04:57:21.980Z,29.20
2023-04-12T04:58:21.968Z,29.23
2023-04-12T04:59:22.028Z,29.23
2023-04-12T05:00:21.959Z,29.20
2023-04-12T05:01:21.984Z,29.24
2023-04-12T05:02:21.956Z,29.27
2023-04-12T05:03:22.006Z,29.25
2023-04-12T05:04:22.001Z,29.24
2023-04-12T05:05:21.894Z,29.24
2023-04-12T05:06:21.887Z,29.24
2023-04-12T05:07:21.883Z,29.24
2023-04-12T05:08:21.872Z,29.24
2023-04-12T05:09:21.855Z,29.21
2023-04-12T05:10:21.844Z,29.13
2023-04-12T05:11:21.894Z,29.09
2023-04-12T05:12:21.827Z,28.89
2023-04-12T05:13:22.133Z,28.80
2023-04-12T05:14:23.365Z,28.78
2023-04-12T05:15:21.931Z,28.75
2023-04-12T05:16:21.976Z,28.63
2023-04-12T05:17:22.026Z,28.55
2023-04-12T05:18:22.185Z,28.51
2023-04-12T05:19:21.926Z,28.58
2023-04-12T05:20:21.946Z,28.54
2023-04-12T05:21:23.733Z,28.61
2023-04-12T05:22:21.912Z,28.70
2023-04-12T05:23:21.922Z,28.86
2023-04-12T05:24:21.886Z,28.87
2023-04-12T05:25:21.879Z,28.92
2023-04-12T05:26:21.862Z,28.94
2023-04-12T05:27:21.872Z,29.07
2023-04-12T05:28:21.864Z,29.23
2023-04-12T05:29:21.854Z,29.24
2023-04-12T05:30:21.845Z,29.17
2023-04-12T05:31:21.935Z,29.26
2023-04-12T05:32:22.156Z,29.28
2023-04-12T05:33:21.873Z,29.31
2023-04-12T05:34:21.818Z,29.38
2023-04-12T05:35:21.883Z,29.39
2023-04-12T05:36:21.787Z,29.51
2023-04-12T05:37:22.141Z,29.47
2023-04-12T05:38:21.768Z,29.48
2023-04-12T05:39:21.751Z,29.55
2023-04-12T05:40:21.741Z,29.56
2023-04-12T05:41:21.736Z,29.58
2023-04-12T05:42:21.741Z,29.60
2023-04-12T05:43:22.159Z,29.61
2023-04-12T05:44:22.149Z,29.71
2023-04-12T05:45:21.695Z,29.68
2023-04-12T05:46:21.787Z,29.76
2023-04-12T05:47:22.148Z,29.76
2023-04-12T05:48:22.150Z,29.89
2023-04-12T05:49:21.729Z,29.95
2023-04-12T05:50:21.649Z,30.00
2023-04-12T05:51:34.116Z,29.99
2023-04-12T05:52:21.653Z,30.12
2023-04-12T05:53:21.646Z,30.27
2023-04-12T05:54:21.670Z,30.42
2023-04-12T05:55:21.684Z,31.19
2023-04-12T05:56:21.659Z,31.33
2023-04-12T05:57:21.702Z,31.18
2023-04-12T05:58:21.812Z,31.01
2023-04-12T05:59:21.591Z,31.01
2023-04-12T06:00:21.604Z,31.02
2023-04-12T06:01:30.166Z,31.02
2023-04-12T06:02:21.832Z,30.96
2023-04-12T06:03:21.830Z,31.09
2023-04-12T06:04:21.754Z,31.09
2023-04-12T06:05:22.822Z,30.95
2023-04-12T06:06:21.551Z,30.96
2023-04-12T06:07:21.511Z,30.85
2023-04-12T06:08:21.669Z,30.75
2023-04-12T06:09:21.506Z,30.69
2023-04-12T06:10:21.513Z,30.80
2023-04-12T06:11:21.545Z,30.82
2023-04-12T06:12:21.542Z,30.67
2023-04-12T06:13:21.608Z,30.71
2023-04-12T06:14:21.599Z,30.70
2023-04-12T06:15:21.632Z,30.66
2023-04-12T06:16:21.618Z,30.64
2023-04-12T06:17:21.677Z,30.64
2023-04-12T06:18:21.659Z,30.70
2023-04-12T06:19:21.658Z,30.63
2023-04-12T06:20:21.599Z,30.57
2023-04-12T06:21:21.695Z,30.56
2023-04-12T06:22:21.663Z,30.54
2023-04-12T06:23:21.698Z,30.45
2023-04-12T06:24:21.566Z,30.40
2023-04-12T06:25:21.562Z,30.39
2023-04-12T06:26:21.553Z,30.41
2023-04-12T06:27:21.544Z,30.34
2023-04-12T06:28:21.761Z,30.30
2023-04-12T06:29:21.521Z,30.36
2023-04-12T06:30:21.530Z,30.29
2023-04-12T06:31:21.572Z,30.38
2023-04-12T06:32:21.881Z,30.35
2023-04-12T06:33:21.672Z,30.26
2023-04-12T06:34:21.477Z,30.24
2023-04-12T06:35:21.478Z,30.26
2023-04-12T06:36:21.466Z,30.20
2023-04-12T06:37:21.682Z,30.22
2023-04-12T06:38:21.450Z,30.29
2023-04-12T06:39:21.665Z,30.24
2023-04-12T06:40:21.449Z,30.26
2023-04-12T06:41:21.427Z,30.22
2023-04-12T06:42:21.428Z,30.22
2023-04-12T06:43:21.670Z,30.20
2023-04-12T06:44:21.422Z,30.17
2023-04-12T06:45:21.413Z,30.40
2023-04-12T06:46:21.425Z,30.54
2023-04-12T06:47:21.701Z,30.65
2023-04-12T06:48:21.871Z,30.67
2023-04-12T06:49:21.420Z,30.77
2023-04-12T06:50:21.448Z,30.78
2023-04-12T06:51:21.478Z,30.80
2023-04-12T06:52:21.513Z,30.77
2023-04-12T06:53:21.754Z,30.82
2023-04-12T06:54:21.506Z,31.00
2023-04-12T06:55:21.554Z,31.05
2023-04-12T06:56:21.604Z,31.05
2023-04-12T06:57:21.645Z,31.83
2023-04-12T06:58:22.169Z,31.84
2023-04-12T06:59:21.741Z,31.67
2023-04-12T07:00:21.778Z,31.57
2023-04-12T07:01:21.889Z,31.97
2023-04-12T07:02:21.950Z,31.83
2023-04-12T07:03:22.196Z,31.85
2023-04-12T07:04:22.102Z,31.87
2023-04-12T07:05:22.054Z,32.09
2023-04-12T07:06:25.967Z,32.35
2023-04-12T07:07:22.083Z,32.19
2023-04-12T07:08:22.174Z,32.04
2023-04-12T07:09:22.062Z,32.27
2023-04-12T07:10:22.083Z,32.31
2023-04-12T07:11:22.336Z,32.31
2023-04-12T07:12:22.151Z,32.45
2023-04-12T07:13:22.700Z,32.25
2023-04-12T07:14:22.680Z,32.22
2023-04-12T07:15:22.301Z,32.39
2023-04-12T07:16:22.378Z,32.33
2023-04-12T07:17:22.713Z,32.48
2023-04-12T07:18:22.516Z,32.48
2023-04-12T07:19:22.519Z,32.41
2023-04-12T07:20:22.488Z,32.45
2023-04-12T07:21:22.520Z,32.51
2023-04-12T07:22:22.871Z,32.62
2023-04-12T07:23:22.723Z,32.81
2023-04-12T07:24:22.680Z,32.79
2023-04-12T07:25:22.760Z,32.81
2023-04-12T07:26:22.700Z,32.98
2023-04-12T07:27:22.769Z,33.09
2023-04-12T07:28:22.786Z,33.00
2023-04-12T07:29:23.206Z,33.31
2023-04-12T07:30:22.816Z,32.94
2023-04-12T07:31:26.123Z,33.18
2023-04-12T07:32:23.338Z,33.13
2023-04-12T07:33:22.983Z,32.97
2023-04-12T07:34:23.355Z,32.47
2023-04-12T07:35:22.758Z,32.76
2023-04-12T07:36:22.794Z,33.14
2023-04-12T07:37:23.226Z,32.62
2023-04-12T07:38:22.790Z,32.50
2023-04-12T07:39:22.808Z,32.67
2023-04-12T07:40:22.739Z,32.90
2023-04-12T07:41:22.810Z,32.52
2023-04-12T07:42:22.760Z,32.56
2023-04-12T07:43:22.794Z,32.44
2023-04-12T07:44:22.632Z,32.53
2023-04-12T07:45:22.787Z,32.65
2023-04-12T07:46:22.727Z,32.94
2023-04-12T07:47:22.798Z,33.07
2023-04-12T07:48:22.628Z,33.12
2023-04-12T07:49:22.728Z,33.22
2023-04-12T07:50:23.739Z,33.23
2023-04-12T07:51:22.783Z,33.15
2023-04-12T07:52:23.814Z,32.70
2023-04-12T07:53:23.407Z,32.72
2023-04-12T07:54:23.803Z,32.90
2023-04-12T07:55:22.927Z,33.12
2023-04-12T07:56:22.984Z,33.09
2023-04-12T07:57:23.385Z,33.35
2023-04-12T07:58:23.041Z,33.00
2023-04-12T07:59:23.142Z,33.02
2023-04-12T08:00:23.116Z,32.89
2023-04-12T08:01:23.642Z,33.32
2023-04-12T08:02:23.313Z,33.51
2023-04-12T08:03:23.325Z,33.62
2023-04-12T08:04:24.489Z,33.14
2023-04-12T08:05:23.750Z,33.22
2023-04-12T08:06:23.357Z,33.32
2023-04-12T08:07:23.400Z,33.18
2023-04-12T08:08:24.460Z,33.24
2023-04-12T08:09:23.759Z,33.55
2023-04-12T08:10:23.493Z,33.40
2023-04-12T08:11:24.538Z,33.63
2023-04-12T08:12:23.734Z,33.62
2023-04-12T08:13:23.642Z,33.67
2023-04-12T08:14:23.616Z,33.56
2023-04-12T08:15:23.827Z,33.42
2023-04-12T08:16:23.690Z,33.46
2023-04-12T08:17:23.682Z,33.46
2023-04-12T08:18:23.708Z,33.56
2023-04-12T08:19:23.725Z,33.57
2023-04-12T08:20:23.745Z,33.65
2023-04-12T08:21:24.233Z,33.71
2023-04-12T08:22:23.789Z,33.66
2023-04-12T08:23:23.825Z,33.67
2023-04-12T08:24:23.833Z,33.64
2023-04-12T08:25:24.025Z,33.61
2023-04-12T08:26:24.213Z,33.69
2023-04-12T08:27:24.285Z,33.69
2023-04-12T08:28:24.878Z,33.70
2023-04-12T08:29:23.915Z,33.77
2023-04-12T08:30:23.903Z,33.68
2023-04-12T08:31:23.944Z,33.75
2023-04-12T08:32:23.913Z,33.68
2023-04-12T08:33:23.909Z,33.81
2023-04-12T08:34:23.940Z,33.66
2023-04-12T08:35:23.936Z,33.75
2023-04-12T08:36:24.180Z,33.46
2023-04-12T08:37:24.293Z,33.45
2023-04-12T08:38:37.274Z,33.48
2023-04-12T08:39:24.726Z,33.55
2023-04-12T08:40:23.965Z,33.65
2023-04-12T08:41:23.937Z,33.51
2023-04-12T08:42:24.341Z,33.80
2023-04-12T08:43:23.920Z,33.92
2023-04-12T08:44:23.871Z,33.73
2023-04-12T08:45:23.960Z,33.69
2023-04-12T08:46:23.916Z,33.65
2023-04-12T08:47:23.934Z,33.57
2023-04-12T08:48:24.244Z,33.37
2023-04-12T08:49:24.114Z,33.41
2023-04-12T08:50:24.242Z,33.35
2023-04-12T08:51:23.772Z,33.27
2023-04-12T08:52:23.689Z,33.24
2023-04-12T08:53:23.723Z,33.29
2023-04-12T08:54:23.708Z,33.47
2023-04-12T08:55:23.671Z,33.46
2023-04-12T08:56:23.621Z,33.46
2023-04-12T08:57:23.604Z,33.33
2023-04-12T08:58:23.722Z,33.27
2023-04-12T08:59:23.643Z,33.29
2023-04-12T09:00:23.715Z,33.35
2023-04-12T09:01:23.740Z,33.50
2023-04-12T09:02:23.898Z,33.53
2023-04-12T09:03:23.906Z,33.44
2023-04-12T09:04:23.896Z,33.40
2023-04-12T09:05:23.796Z,33.34
2023-04-12T09:06:23.726Z,33.41
2023-04-12T09:07:23.762Z,33.43
2023-04-12T09:08:24.218Z,33.46
2023-04-12T09:09:23.740Z,33.53
2023-04-12T09:10:24.031Z,33.48
2023-04-12T09:11:23.760Z,33.42
2023-04-12T09:12:23.752Z,33.47
2023-04-12T09:13:24.225Z,33.43
2023-04-12T09:14:23.765Z,33.57
2023-04-12T09:15:24.222Z,33.49
2023-04-12T09:16:23.829Z,33.60
2023-04-12T09:17:24.863Z,33.69
2023-04-12T09:18:23.768Z,33.73
2023-04-12T09:19:24.232Z,33.76
2023-04-12T09:20:24.026Z,33.94
2023-04-12T09:21:23.751Z,33.83
2023-04-12T09:22:23.759Z,33.91
2023-04-12T09:23:24.231Z,33.82
2023-04-12T09:24:24.281Z,33.72
2023-04-12T09:25:23.721Z,33.72
2023-04-12T09:26:23.709Z,33.63
2023-04-12T09:27:23.731Z,33.68
2023-04-12T09:28:23.784Z,33.45
2023-04-12T09:29:23.812Z,33.42
2023-04-12T09:30:23.813Z,33.40
2023-04-12T09:31:24.678Z,33.51
2023-04-12T09:32:23.674Z,33.40
2023-04-12T09:33:23.958Z,33.33
2023-04-12T09:34:25.199Z,33.32
2023-04-12T09:35:23.605Z,33.12
2023-04-12T09:36:23.591Z,33.19
2023-04-12T09:37:23.586Z,33.00
2023-04-12T09:38:24.258Z,33.00
2023-04-12T09:39:23.531Z,32.89
2023-04-12T09:40:23.506Z,32.79
2023-04-12T09:41:26.844Z,32.84
2023-04-12T09:42:33.236Z,32.88
2023-04-12T09:43:23.848Z,32.71
2023-04-12T09:44:23.768Z,32.56
2023-04-12T09:45:23.848Z,32.69
2023-04-12T09:46:23.483Z,32.76
2023-04-12T09:47:23.399Z,32.78
2023-04-12T09:48:23.348Z,32.60
2023-04-12T09:49:23.392Z,32.61
2023-04-12T09:50:23.752Z,32.71
2023-04-12T09:51:24.041Z,32.67
2023-04-12T09:52:23.236Z,32.57
2023-04-12T09:53:23.219Z,32.68
2023-04-12T09:54:23.182Z,32.56
2023-04-12T09:55:23.247Z,32.46
2023-04-12T09:56:23.177Z,32.35
2023-04-12T09:57:23.196Z,32.17
2023-04-12T09:58:23.172Z,32.11
2023-04-12T09:59:23.240Z,32.00
2023-04-12T10:00:23.181Z,31.75
2023-04-12T10:01:23.287Z,31.53
2023-04-12T10:02:23.419Z,31.53
2023-04-12T10:03:23.472Z,31.42
2023-04-12T10:04:23.587Z,31.25
2023-04-12T10:05:23.678Z,31.10
2023-04-12T10:06:23.183Z,31.03
2023-04-12T10:07:23.220Z,30.88
2023-04-12T10:08:23.214Z,30.91
2023-04-12T10:09:23.255Z,30.85
2023-04-12T10:10:23.403Z,30.53
2023-04-12T10:11:23.312Z,30.20
2023-04-12T10:12:23.322Z,30.35
2023-04-12T10:13:23.779Z,30.23
2023-04-12T10:14:23.375Z,30.24
2023-04-12T10:15:23.430Z,30.41
2023-04-12T10:16:23.488Z,30.47
2023-04-12T10:17:23.536Z,30.73
2023-04-12T10:18:23.792Z,30.76
2023-04-12T10:19:23.549Z,30.58
2023-04-12T10:20:27.086Z,30.60
2023-04-12T10:21:23.660Z,30.49
2023-04-12T10:22:23.576Z,30.48
2023-04-12T10:23:23.791Z,30.54
2023-04-12T10:24:23.778Z,30.61
2023-04-12T10:25:24.241Z,30.86
2023-04-12T10:26:23.529Z,30.90
2023-04-12T10:27:23.534Z,31.27
2023-04-12T10:28:23.520Z,31.53
2023-04-12T10:29:23.779Z,31.52
2023-04-12T10:30:23.506Z,31.58
2023-04-12T10:31:23.869Z,31.72
2023-04-12T10:32:23.531Z,32.01
2023-04-12T10:33:23.923Z,32.17
2023-04-12T10:34:23.492Z,32.44
2023-04-12T10:35:23.450Z,32.42
2023-04-12T10:36:23.455Z,32.52
2023-04-12T10:37:23.632Z,32.63
2023-04-12T10:38:23.772Z,32.64
2023-04-12T10:39:23.418Z,32.57
2023-04-12T10:40:23.434Z,32.64
2023-04-12T10:41:23.429Z,32.62
2023-04-12T10:42:23.490Z,32.80
2023-04-12T10:43:23.467Z,32.73
2023-04-12T10:44:23.430Z,32.81
2023-04-12T10:45:23.437Z,32.74
2023-04-12T10:46:23.517Z,32.89
2023-04-12T10:47:23.607Z,32.99
2023-04-12T10:48:23.585Z,33.05
2023-04-12T10:49:23.498Z,33.00
2023-04-12T10:50:23.809Z,32.99
2023-04-12T10:51:23.659Z,33.07
2023-04-12T10:52:23.514Z,33.05
2023-04-12T10:53:23.552Z,33.25
2023-04-12T10:54:23.516Z,33.25
2023-04-12T10:55:23.527Z,33.17
2023-04-12T10:56:24.986Z,33.30
2023-04-12T10:57:23.565Z,33.34
2023-04-12T10:58:23.538Z,33.44
2023-04-12T10:59:31.308Z,33.34
2023-04-12T11:00:23.577Z,33.21
2023-04-12T11:01:23.623Z,33.28
2023-04-12T11:02:23.723Z,33.33
2023-04-12T11:03:23.529Z,33.44
2023-04-12T11:04:23.813Z,33.31
2023-04-12T11:05:23.500Z,33.27
2023-04-12T11:06:27.860Z,33.38
2023-04-12T11:07:23.554Z,33.43
2023-04-12T11:08:23.581Z,33.48
2023-04-12T11:09:23.784Z,33.62
2023-04-12T11:10:23.662Z,33.60
2023-04-12T11:11:23.577Z,33.79
2023-04-12T11:12:24.134Z,33.74
2023-04-12T11:13:23.588Z,33.91
2023-04-12T11:14:23.588Z,33.97
2023-04-12T11:15:24.024Z,33.90
2023-04-12T11:16:23.801Z,33.89
2023-04-12T11:17:24.286Z,33.84
2023-04-12T11:18:23.668Z,33.76
2023-04-12T11:19:23.607Z,33.61
2023-04-12T11:20:23.680Z,32.94
2023-04-12T11:22:22.694Z,32.81
2023-04-12T11:23:23.764Z,32.97
2023-04-12T11:24:24.264Z,32.81
2023-04-12T11:25:23.728Z,32.85
2023-04-12T11:26:23.719Z,32.95
2023-04-12T11:27:23.727Z,32.91
2023-04-12T11:28:29.639Z,32.67
2023-04-12T11:29:23.717Z,32.61
2023-04-12T11:30:23.819Z,32.34
2023-04-12T11:31:23.730Z,32.11
2023-04-12T11:32:23.790Z,31.97
2023-04-12T11:33:23.652Z,31.94
2023-04-12T11:34:23.787Z,31.98
2023-04-12T11:35:23.632Z,31.93
2023-04-12T11:36:23.778Z,31.88
2023-04-12T11:37:23.580Z,32.17
2023-04-12T11:38:23.563Z,31.96
2023-04-12T11:39:23.560Z,31.84
2023-04-12T11:40:23.555Z,31.70
2023-04-12T11:41:23.805Z,31.71
2023-04-12T11:42:23.545Z,31.74
2023-04-12T11:43:23.506Z,31.80
2023-04-12T11:44:23.494Z,31.86
2023-04-12T11:45:23.463Z,31.98
2023-04-12T11:46:23.876Z,32.04
2023-04-12T11:47:23.483Z,31.86
2023-04-12T11:48:23.785Z,32.00
2023-04-12T11:49:23.386Z,31.98
2023-04-12T11:50:23.372Z,32.15
2023-04-12T11:51:23.839Z,32.30
2023-04-12T11:52:24.065Z,32.23
2023-04-12T11:53:23.303Z,32.16
2023-04-12T11:54:23.781Z,32.01
2023-04-12T11:55:23.272Z,31.97
2023-04-12T11:56:23.260Z,31.96
2023-04-12T11:57:23.346Z,32.00
2023-04-12T11:58:23.220Z,32.19
2023-04-12T11:59:23.198Z,32.25
2023-04-12T12:00:23.283Z,32.30
2023-04-12T12:01:23.184Z,32.37
2023-04-12T12:02:24.773Z,32.11
2023-04-12T12:03:23.306Z,32.05
2023-04-12T12:04:23.474Z,32.15
2023-04-12T12:05:23.653Z,32.09
2023-04-12T12:06:23.523Z,31.88
2023-04-12T12:07:23.647Z,32.26
2023-04-12T12:08:23.843Z,32.68
2023-04-12T12:09:23.052Z,32.77
2023-04-12T12:10:40.056Z,32.88
2023-04-12T12:11:23.028Z,32.84
2023-04-12T12:12:22.999Z,32.91
2023-04-12T12:13:23.090Z,33.13
2023-04-12T12:14:22.956Z,33.06
2023-04-12T12:15:22.957Z,33.25
2023-04-12T12:16:22.978Z,33.29
2023-04-12T12:17:22.926Z,33.30
2023-04-12T12:18:22.880Z,33.38
2023-04-12T12:19:22.859Z,33.39
2023-04-12T12:20:22.874Z,33.55
2023-04-12T12:21:22.826Z,33.32
2023-04-12T12:22:22.812Z,33.39
2023-04-12T12:23:22.781Z,33.42
2023-04-12T12:24:22.764Z,33.57
2023-04-12T12:25:22.737Z,33.53
2023-04-12T12:26:22.769Z,33.53
2023-04-12T12:27:22.743Z,33.55
2023-04-12T12:28:21.716Z,33.51
2023-04-12T12:29:22.832Z,33.47
2023-04-12T12:30:22.637Z,33.54
2023-04-12T12:31:22.752Z,33.59
2023-04-12T12:32:22.741Z,33.68
2023-04-12T12:33:32.020Z,33.64
2023-04-12T12:34:22.804Z,33.76
2023-04-12T12:35:22.537Z,33.72
2023-04-12T12:36:22.497Z,33.84
2023-04-12T12:37:22.481Z,33.86
2023-04-12T12:38:23.260Z,33.83
2023-04-12T12:39:22.432Z,33.79
2023-04-12T12:40:22.397Z,33.78
2023-04-12T12:41:22.386Z,33.73
2023-04-12T12:42:22.371Z,33.75
2023-04-12T12:43:22.340Z,33.70
2023-04-12T12:44:22.813Z,33.77
2023-04-12T12:45:22.358Z,33.60
2023-04-12T12:46:22.336Z,33.74
2023-04-12T12:47:22.408Z,33.75
2023-04-12T12:48:22.267Z,33.80
2023-04-12T12:49:22.209Z,33.76
2023-04-12T12:50:24.457Z,33.79
2023-04-12T12:51:22.180Z,33.78
2023-04-12T12:52:22.153Z,33.79
2023-04-12T12:53:24.348Z,33.87